Time;durP1;ratioP1;P1;durP2;ratioP2;P2;SDS_P1;SDS_P2;PMS_P1;PMS_P2;Temp;Humidity;BMP_temperature;BMP_pressure;BME280_temperature;BME280_humidity;BME280_pressure;Samples;Min_cycle;Max_cycle;Signal;HPM_P1;HPM_P2
2022/01/20 00:03:31;;;;;;;18.80;4.37;;;;;;;;;;4962766;28;20221;-72
2022/01/20 00:27:51;;;;;;;15.53;3.57;;;;;;;;;;4976302;28;20292;-72
2022/01/20 00:38:25;;;;;;;14.30;3.50;;;;;;;;;;4979050;28;20232;-73
2022/01/20 00:40:54;;;;;;;22.60;4.13;;;;;;;;;;4993795;28;20205;-73
2022/01/20 00:43:23;;;;;;;14.00;3.50;;;;;;;;;;4994175;28;20233;-73
2022/01/20 00:45:49;;;;;;;18.13;3.77;;;;;;;;;;4962263;28;20233;-72
2022/01/20 00:48:15;;;;;;;21.07;4.67;;;;;;;;;;4993303;28;20235;-72
2022/01/20 00:50:40;;;;;;;19.67;4.00;;;;;;;;;;4961249;28;20220;-72
2022/01/20 00:53:10;;;;;;;19.47;3.70;;;;;;;;;;4960305;28;20225;-72
2022/01/20 00:55:38;;;;;;;19.63;4.40;;;;;;;;;;4993462;28;20780;-72
2022/01/20 00:58:06;;;;;;;22.40;4.27;;;;;;;;;;4960923;28;20217;-72
2022/01/20 01:00:35;;;;;;;14.87;3.33;;;;;;;;;;4960965;28;20219;-71
2022/01/20 01:03:00;;;;;;;16.40;3.97;;;;;;;;;;4960649;28;20217;-73
2022/01/20 01:05:27;;;;;;;18.23;4.57;;;;;;;;;;4960510;28;20723;-72
2022/01/20 01:07:56;;;;;;;13.70;3.77;;;;;;;;;;4992720;28;20228;-73
2022/01/20 01:10:29;;;;;;;14.77;3.87;;;;;;;;;;4976296;28;20218;-73
2022/01/20 01:13:09;;;;;;;17.57;3.53;;;;;;;;;;4961078;28;20209;-72
2022/01/20 01:15:42;;;;;;;14.23;3.77;;;;;;;;;;4963673;28;20606;-73
2022/01/20 01:23:37;;;;;;;16.00;3.43;;;;;;;;;;4959833;28;20598;-74
2022/01/20 01:26:16;;;;;;;19.20;4.10;;;;;;;;;;4961201;28;20283;-72
2022/01/20 01:28:42;;;;;;;14.30;3.30;;;;;;;;;;4974223;28;20762;-73
2022/01/20 01:33:38;;;;;;;15.13;3.20;;;;;;;;;;4974790;28;20225;-74
2022/01/20 01:36:08;;;;;;;14.60;3.23;;;;;;;;;;4975798;28;20699;-73
2022/01/20 01:38:41;;;;;;;16.87;3.60;;;;;;;;;;4960192;28;20214;-72
2022/01/20 01:41:11;;;;;;;11.10;2.63;;;;;;;;;;4992050;28;20613;-73
2022/01/20 01:43:39;;;;;;;12.57;2.80;;;;;;;;;;4975879;28;20597;-73
2022/01/20 01:46:05;;;;;;;11.50;2.77;;;;;;;;;;4960412;28;20233;-72
2022/01/20 01:48:34;;;;;;;10.57;2.90;;;;;;;;;;4961124;28;20223;-72
2022/01/20 01:51:02;;;;;;;13.77;2.47;;;;;;;;;;4960273;28;20226;-71
2022/01/20 01:53:29;;;;;;;12.77;2.23;;;;;;;;;;4975369;28;20658;-72
2022/01/20 01:55:57;;;;;;;6.17;2.00;;;;;;;;;;4975970;28;20225;-73
2022/01/20 01:58:24;;;;;;;11.93;2.90;;;;;;;;;;4959706;28;20224;-72
2022/01/20 02:01:12;;;;;;;10.53;2.27;;;;;;;;;;4978793;28;20229;-72
2022/01/20 02:03:44;;;;;;;11.70;2.63;;;;;;;;;;4975454;28;20225;-74
2022/01/20 02:08:58;;;;;;;8.23;2.47;;;;;;;;;;4976115;28;20271;-74
2022/01/20 02:19:47;;;;;;;10.23;2.10;;;;;;;;;;4967607;28;20213;-72
2022/01/20 02:22:48;;;;;;;6.13;2.07;;;;;;;;;;4972548;28;20288;-73
2022/01/20 02:25:40;;;;;;;7.10;1.90;;;;;;;;;;4994750;28;20209;-73
2022/01/20 02:28:10;;;;;;;10.97;2.30;;;;;;;;;;4961544;28;20218;-73
2022/01/20 02:30:47;;;;;;;9.63;1.97;;;;;;;;;;4958356;28;20615;-73
2022/01/20 02:33:18;;;;;;;9.80;2.37;;;;;;;;;;4984454;28;20693;-73
2022/01/20 02:35:49;;;;;;;13.33;2.50;;;;;;;;;;4944601;28;20301;-73
2022/01/20 02:46:17;;;;;;;11.10;2.67;;;;;;;;;;4991792;28;20236;-74
2022/01/20 02:48:45;;;;;;;8.23;2.23;;;;;;;;;;4976024;28;20217;-74
2022/01/20 02:51:10;;;;;;;8.83;2.43;;;;;;;;;;4990677;28;20233;-73
2022/01/20 02:53:44;;;;;;;11.27;2.33;;;;;;;;;;4990521;28;20580;-72
2022/01/20 02:56:10;;;;;;;6.90;1.63;;;;;;;;;;4990830;28;20229;-73
2022/01/20 02:58:35;;;;;;;10.87;2.20;;;;;;;;;;4959080;28;20709;-71
2022/01/20 03:01:03;;;;;;;10.93;2.10;;;;;;;;;;4991511;28;20308;-72
2022/01/20 03:03:29;;;;;;;9.13;2.10;;;;;;;;;;4957653;28;20245;-71
2022/01/20 03:05:55;;;;;;;9.33;2.63;;;;;;;;;;4974770;28;20687;-73
2022/01/20 03:08:23;;;;;;;9.70;2.47;;;;;;;;;;4959829;28;20213;-73
2022/01/20 03:10:54;;;;;;;11.00;2.43;;;;;;;;;;4961317;28;20283;-72
2022/01/20 03:13:22;;;;;;;8.73;2.30;;;;;;;;;;4990214;28;20232;-74
2022/01/20 03:15:51;;;;;;;11.73;2.57;;;;;;;;;;4991119;28;20225;-74
2022/01/20 03:18:16;;;;;;;7.90;2.07;;;;;;;;;;4943124;28;20232;-72
2022/01/20 03:20:50;;;;;;;7.97;1.87;;;;;;;;;;4974753;28;20221;-74
2022/01/20 03:23:16;;;;;;;5.37;1.50;;;;;;;;;;4975196;28;20284;-75
2022/01/20 03:25:42;;;;;;;7.70;2.00;;;;;;;;;;4974745;28;20237;-72
2022/01/20 03:28:10;;;;;;;8.60;1.63;;;;;;;;;;4974617;28;20228;-73
2022/01/20 03:30:38;;;;;;;9.00;2.07;;;;;;;;;;4958823;28;20225;-73
2022/01/20 03:33:04;;;;;;;3.53;1.23;;;;;;;;;;4973583;28;20263;-72
2022/01/20 03:35:31;;;;;;;9.30;1.30;;;;;;;;;;4990880;28;20236;-73
2022/01/20 03:38:19;;;;;;;7.23;1.70;;;;;;;;;;4970678;28;20235;-73
2022/01/20 03:40:44;;;;;;;5.47;1.40;;;;;;;;;;4964902;28;20267;-73
2022/01/20 03:43:10;;;;;;;8.67;1.70;;;;;;;;;;4980049;28;20225;-73
2022/01/20 03:45:39;;;;;;;7.83;1.90;;;;;;;;;;4949072;28;20286;-72
2022/01/20 03:48:10;;;;;;;8.70;1.87;;;;;;;;;;4974807;28;20302;-73
2022/01/20 03:53:24;;;;;;;8.07;1.80;;;;;;;;;;4977043;28;20238;-74
2022/01/20 03:55:53;;;;;;;8.33;2.23;;;;;;;;;;4981778;28;20295;-73
2022/01/20 03:58:18;;;;;;;9.80;1.90;;;;;;;;;;4963727;28;20241;-74
2022/01/20 04:00:49;;;;;;;9.40;2.30;;;;;;;;;;4996527;28;20221;-73
2022/01/20 04:03:23;;;;;;;12.43;2.37;;;;;;;;;;4980580;28;20257;-74
2022/01/20 04:06:03;;;;;;;13.53;2.60;;;;;;;;;;4982073;28;20265;-73
2022/01/20 04:08:43;;;;;;;14.10;2.33;;;;;;;;;;4981394;28;20718;-74
2022/01/20 04:11:15;;;;;;;13.10;2.23;;;;;;;;;;4975916;28;20219;-74
2022/01/20 04:13:42;;;;;;;6.93;1.73;;;;;;;;;;4977804;28;20225;-74
2022/01/20 04:16:53;;;;;;;15.30;2.47;;;;;;;;;;4967316;28;20279;-72
2022/01/20 04:19:22;;;;;;;11.57;2.30;;;;;;;;;;4983298;28;20344;-73
2022/01/20 04:21:50;;;;;;;16.33;2.77;;;;;;;;;;4996909;28;20248;-73
2022/01/20 04:24:18;;;;;;;8.73;2.63;;;;;;;;;;4957958;28;20236;-72
2022/01/20 04:26:44;;;;;;;14.90;2.93;;;;;;;;;;4963938;28;20225;-74
2022/01/20 04:29:14;;;;;;;12.20;2.30;;;;;;;;;;4960512;28;20736;-74
2022/01/20 04:31:43;;;;;;;16.10;2.67;;;;;;;;;;4976774;28;20224;-73
2022/01/20 04:34:16;;;;;;;13.93;3.10;;;;;;;;;;4995189;28;20233;-74
2022/01/20 04:36:47;;;;;;;12.03;2.17;;;;;;;;;;4996334;28;20233;-73
2022/01/20 04:39:20;;;;;;;17.03;2.60;;;;;;;;;;4964200;28;20232;-73
2022/01/20 04:41:52;;;;;;;9.80;2.63;;;;;;;;;;4997188;28;20236;-73
2022/01/20 04:44:40;;;;;;;9.57;2.10;;;;;;;;;;4964866;28;20299;-73
2022/01/20 04:58:01;;;;;;;15.83;2.50;;;;;;;;;;4975797;28;20793;-72
2022/01/20 05:00:27;;;;;;;17.60;2.70;;;;;;;;;;4984170;28;20285;-73
2022/01/20 05:03:11;;;;;;;9.30;2.23;;;;;;;;;;4984092;28;20266;-74
2022/01/20 05:05:40;;;;;;;11.17;2.53;;;;;;;;;;4975961;28;20312;-72
2022/01/20 05:08:11;;;;;;;10.90;2.43;;;;;;;;;;4968360;28;20221;-73
2022/01/20 05:10:38;;;;;;;8.77;1.90;;;;;;;;;;4952780;28;20724;-72
2022/01/20 05:15:32;;;;;;;11.43;2.30;;;;;;;;;;4961140;28;20223;-74
2022/01/20 05:17:58;;;;;;;8.13;1.97;;;;;;;;;;4993270;28;20232;-72
2022/01/20 05:20:23;;;;;;;9.03;2.67;;;;;;;;;;4976660;28;20226;-74
2022/01/20 05:22:49;;;;;;;8.23;2.10;;;;;;;;;;4992884;28;20244;-74
2022/01/20 05:25:18;;;;;;;10.33;2.40;;;;;;;;;;4976592;28;20586;-74
2022/01/20 05:27:45;;;;;;;9.10;2.03;;;;;;;;;;4960620;28;20256;-73
2022/01/20 05:30:19;;;;;;;7.83;1.63;;;;;;;;;;4975109;28;20241;-75
2022/01/20 05:33:10;;;;;;;7.43;2.10;;;;;;;;;;4943260;28;20295;-73
2022/01/20 05:35:38;;;;;;;11.73;2.40;;;;;;;;;;4976656;28;20229;-73
2022/01/20 05:38:07;;;;;;;12.47;2.30;;;;;;;;;;4960971;28;20308;-73
2022/01/20 05:40:34;;;;;;;10.37;2.67;;;;;;;;;;4992400;28;20229;-74
2022/01/20 05:43:02;;;;;;;13.13;2.50;;;;;;;;;;4976034;28;20693;-73
2022/01/20 05:45:29;;;;;;;7.27;2.10;;;;;;;;;;4975795;28;20248;-72
2022/01/20 05:48:10;;;;;;;10.07;2.60;;;;;;;;;;4957685;28;20224;-72
2022/01/20 05:50:57;;;;;;;9.77;2.23;;;;;;;;;;4969872;28;20842;-73
2022/01/20 05:53:25;;;;;;;12.10;2.37;;;;;;;;;;4992073;28;20317;-73
2022/01/20 05:55:54;;;;;;;10.57;2.70;;;;;;;;;;4977899;28;20253;-72
2022/01/20 05:58:22;;;;;;;11.57;2.27;;;;;;;;;;4959807;28;20226;-73
2022/01/20 06:00:49;;;;;;;12.60;2.50;;;;;;;;;;4944352;28;20225;-72
2022/01/20 06:03:36;;;;;;;9.80;2.20;;;;;;;;;;4968487;28;20224;-73
2022/01/20 06:06:07;;;;;;;8.93;2.30;;;;;;;;;;4977673;28;20221;-73
2022/01/20 06:08:36;;;;;;;8.47;2.50;;;;;;;;;;4959662;28;20249;-73
2022/01/20 06:11:02;;;;;;;7.80;1.90;;;;;;;;;;4975204;28;20233;-75
2022/01/20 06:13:31;;;;;;;15.73;2.50;;;;;;;;;;4960451;28;20217;-73
2022/01/20 06:15:58;;;;;;;10.77;2.67;;;;;;;;;;4975965;28;20233;-73
2022/01/20 06:18:24;;;;;;;13.27;3.00;;;;;;;;;;4959120;28;20217;-74
2022/01/20 06:21:00;;;;;;;9.30;2.77;;;;;;;;;;4961409;28;20217;-73
2022/01/20 06:23:26;;;;;;;11.80;2.47;;;;;;;;;;4975558;28;20222;-73
2022/01/20 06:25:57;;;;;;;15.87;2.80;;;;;;;;;;4976145;28;20294;-73
2022/01/20 06:28:23;;;;;;;17.60;2.60;;;;;;;;;;4990854;28;20264;-72
2022/01/20 06:30:54;;;;;;;8.43;2.40;;;;;;;;;;4975585;28;20247;-74
2022/01/20 06:33:19;;;;;;;12.30;2.77;;;;;;;;;;4975164;28;20221;-74
2022/01/20 06:35:52;;;;;;;11.87;2.97;;;;;;;;;;4992067;28;20225;-73
2022/01/20 06:38:18;;;;;;;13.73;3.10;;;;;;;;;;4974368;28;20296;-73
2022/01/20 06:40:44;;;;;;;11.00;2.83;;;;;;;;;;4974862;28;20275;-73
2022/01/20 06:43:12;;;;;;;12.47;2.60;;;;;;;;;;4943651;28;20232;-73
2022/01/20 06:45:38;;;;;;;10.20;2.37;;;;;;;;;;4975047;28;20248;-74
2022/01/20 06:48:08;;;;;;;10.63;2.53;;;;;;;;;;4955815;28;20232;-74
2022/01/20 06:50:42;;;;;;;10.93;2.63;;;;;;;;;;4956756;28;20218;-74
2022/01/20 06:53:08;;;;;;;13.40;3.20;;;;;;;;;;4958766;28;20214;-74
2022/01/20 06:55:39;;;;;;;8.13;2.80;;;;;;;;;;4975827;28;20228;-74
2022/01/20 06:58:06;;;;;;;10.03;2.43;;;;;;;;;;4991812;28;20217;-73
2022/01/20 07:00:34;;;;;;;13.03;2.80;;;;;;;;;;4960389;28;20228;-73
2022/01/20 07:03:00;;;;;;;12.20;2.53;;;;;;;;;;4990938;28;20225;-73
2022/01/20 07:05:26;;;;;;;11.00;2.53;;;;;;;;;;4973975;28;20225;-73
2022/01/20 07:07:55;;;;;;;10.97;2.40;;;;;;;;;;4991538;28;20344;-73
2022/01/20 07:10:27;;;;;;;9.53;2.77;;;;;;;;;;4974944;28;20625;-73
2022/01/20 07:12:56;;;;;;;12.87;2.80;;;;;;;;;;4959704;28;20606;-73
2022/01/20 07:15:21;;;;;;;10.10;2.73;;;;;;;;;;4986889;28;20247;-73
2022/01/20 07:17:52;;;;;;;12.40;2.53;;;;;;;;;;4962837;28;20245;-74
2022/01/20 07:20:22;;;;;;;12.83;2.77;;;;;;;;;;4975133;28;20273;-72
2022/01/20 07:23:13;;;;;;;15.40;2.53;;;;;;;;;;4989645;28;20267;-72
2022/01/20 07:25:52;;;;;;;12.33;2.70;;;;;;;;;;4962375;28;20221;-72
2022/01/20 07:28:21;;;;;;;12.23;2.63;;;;;;;;;;4990611;28;20245;-73
2022/01/20 07:30:47;;;;;;;13.33;2.80;;;;;;;;;;4958789;28;20216;-73
2022/01/20 07:33:13;;;;;;;10.53;3.20;;;;;;;;;;4989933;28;20650;-73
2022/01/20 07:35:40;;;;;;;9.67;2.63;;;;;;;;;;4958237;28;20237;-73
2022/01/20 07:38:07;;;;;;;11.60;2.77;;;;;;;;;;4957561;28;20761;-73
2022/01/20 07:40:36;;;;;;;10.37;2.43;;;;;;;;;;4957228;28;20267;-73
2022/01/20 07:43:06;;;;;;;12.47;2.70;;;;;;;;;;4995970;28;20737;-73
2022/01/20 07:45:46;;;;;;;8.87;2.50;;;;;;;;;;4984708;28;20232;-73
2022/01/20 07:48:19;;;;;;;8.43;2.27;;;;;;;;;;4974969;28;20221;-73
2022/01/20 07:50:48;;;;;;;16.27;2.50;;;;;;;;;;4974122;28;20231;-73
2022/01/20 07:53:17;;;;;;;12.03;3.10;;;;;;;;;;4938696;28;20217;-75
2022/01/20 07:55:45;;;;;;;7.97;2.20;;;;;;;;;;4971218;28;20230;-73
2022/01/20 07:58:13;;;;;;;19.47;2.83;;;;;;;;;;4981794;28;20718;-73
2022/01/20 08:00:42;;;;;;;12.83;3.37;;;;;;;;;;4991163;28;20209;-74
2022/01/20 08:03:07;;;;;;;13.07;2.77;;;;;;;;;;4987361;28;20213;-73
2022/01/20 08:05:42;;;;;;;13.23;2.80;;;;;;;;;;4974098;28;20229;-73
2022/01/20 08:08:10;;;;;;;13.23;4.10;;;;;;;;;;4982934;28;20226;-73
2022/01/20 08:10:41;;;;;;;8.83;3.30;;;;;;;;;;4981903;28;20301;-73
2022/01/20 08:13:07;;;;;;;12.87;2.97;;;;;;;;;;4955241;28;20257;-73
2022/01/20 08:15:32;;;;;;;14.57;3.27;;;;;;;;;;4990377;28;20222;-74
2022/01/20 08:18:07;;;;;;;14.80;3.07;;;;;;;;;;4990625;28;20271;-73
2022/01/20 08:20:34;;;;;;;10.93;3.13;;;;;;;;;;4958927;28;20611;-74
2022/01/20 08:23:06;;;;;;;8.43;2.47;;;;;;;;;;4974628;28;20267;-73
2022/01/20 08:25:33;;;;;;;15.43;2.90;;;;;;;;;;4959283;28;20218;-73
2022/01/20 08:28:02;;;;;;;13.03;2.80;;;;;;;;;;4994539;28;20283;-73
2022/01/20 08:30:35;;;;;;;12.07;2.90;;;;;;;;;;4999909;28;20296;-74
2022/01/20 08:33:01;;;;;;;14.63;2.53;;;;;;;;;;4987372;28;20221;-73
2022/01/20 08:35:47;;;;;;;10.63;3.40;;;;;;;;;;5003278;28;20221;-73
2022/01/20 08:38:16;;;;;;;12.03;2.93;;;;;;;;;;4999331;28;20237;-73
2022/01/20 08:40:43;;;;;;;9.13;2.30;;;;;;;;;;4978281;28;20257;-73
2022/01/20 08:43:14;;;;;;;9.33;3.07;;;;;;;;;;4974235;28;20283;-73
2022/01/20 08:45:43;;;;;;;14.33;2.53;;;;;;;;;;4992598;28;20252;-73
2022/01/20 08:48:12;;;;;;;12.50;2.53;;;;;;;;;;4978231;28;20279;-73
2022/01/20 08:51:01;;;;;;;13.27;2.80;;;;;;;;;;4974592;28;20237;-74
2022/01/20 08:53:37;;;;;;;7.00;2.37;;;;;;;;;;4958965;28;20232;-72
2022/01/20 08:56:09;;;;;;;11.17;2.40;;;;;;;;;;4990244;28;20317;-74
2022/01/20 08:58:35;;;;;;;10.70;2.43;;;;;;;;;;4965648;28;20224;-73
2022/01/20 09:01:02;;;;;;;9.23;2.10;;;;;;;;;;5027045;28;20599;-74
2022/01/20 09:03:29;;;;;;;9.33;2.40;;;;;;;;;;5019363;28;20229;-73
2022/01/20 09:05:55;;;;;;;10.23;2.30;;;;;;;;;;4985121;28;20699;-73
2022/01/20 09:08:34;;;;;;;12.77;2.37;;;;;;;;;;4993347;28;20221;-74
2022/01/20 09:11:17;;;;;;;7.03;1.57;;;;;;;;;;4993779;28;20216;-73
2022/01/20 09:16:27;;;;;;;9.80;1.90;;;;;;;;;;4993531;28;20224;-74
2022/01/20 09:19:15;;;;;;;10.63;2.43;;;;;;;;;;4995909;28;20657;-73
2022/01/20 09:21:53;;;;;;;11.60;2.73;;;;;;;;;;4981155;28;20296;-72
2022/01/20 09:24:23;;;;;;;8.10;2.40;;;;;;;;;;4981063;28;20312;-73
2022/01/20 09:26:53;;;;;;;9.23;3.23;;;;;;;;;;4976574;28;20222;-74
2022/01/20 09:29:20;;;;;;;13.17;2.40;;;;;;;;;;4984818;28;20250;-73
2022/01/20 09:31:45;;;;;;;9.93;2.77;;;;;;;;;;4954083;28;21038;-72
2022/01/20 09:34:15;;;;;;;13.47;3.03;;;;;;;;;;4944754;28;20229;-73
2022/01/20 09:36:45;;;;;;;12.27;3.17;;;;;;;;;;4985550;28;20710;-72
2022/01/20 09:39:12;;;;;;;11.43;2.63;;;;;;;;;;4959144;28;20884;-72
2022/01/20 09:41:47;;;;;;;14.27;2.60;;;;;;;;;;4974180;28;20272;-73
2022/01/20 09:44:15;;;;;;;12.27;2.97;;;;;;;;;;4968102;28;20236;-72
2022/01/20 09:46:46;;;;;;;10.67;2.30;;;;;;;;;;4976258;28;20224;-73
2022/01/20 09:49:26;;;;;;;10.87;2.67;;;;;;;;;;4967172;28;20209;-73
2022/01/20 09:51:54;;;;;;;12.30;2.53;;;;;;;;;;4995934;28;20233;-73
2022/01/20 09:54:32;;;;;;;10.50;3.20;;;;;;;;;;4993126;28;20221;-73
2022/01/20 09:57:01;;;;;;;17.67;3.07;;;;;;;;;;4968906;28;20227;-72
2022/01/20 09:59:30;;;;;;;12.20;2.70;;;;;;;;;;5003162;28;20271;-74
2022/01/20 10:01:58;;;;;;;8.47;2.30;;;;;;;;;;4991128;28;20236;-73
2022/01/20 10:04:32;;;;;;;10.57;2.70;;;;;;;;;;4993204;28;20731;-73
2022/01/20 10:07:01;;;;;;;12.17;3.17;;;;;;;;;;4985909;28;20225;-73
2022/01/20 10:09:34;;;;;;;8.97;2.93;;;;;;;;;;4991986;28;20260;-72
2022/01/20 10:12:08;;;;;;;10.63;2.87;;;;;;;;;;4960999;28;20225;-74
2022/01/20 10:14:48;;;;;;;6.43;2.17;;;;;;;;;;4978257;28;20658;-73
2022/01/20 10:17:32;;;;;;;14.50;2.63;;;;;;;;;;4973000;28;20232;-74
2022/01/20 10:20:03;;;;;;;9.57;2.53;;;;;;;;;;4972826;28;20238;-73
2022/01/20 10:22:35;;;;;;;8.53;2.50;;;;;;;;;;4973357;28;20217;-73
2022/01/20 10:25:14;;;;;;;10.03;2.30;;;;;;;;;;4972501;28;20769;-73
2022/01/20 10:28:01;;;;;;;9.83;2.43;;;;;;;;;;4978916;28;20742;-72
2022/01/20 10:30:33;;;;;;;11.27;2.43;;;;;;;;;;5006737;28;20290;-73
2022/01/20 10:33:02;;;;;;;9.00;2.10;;;;;;;;;;4995874;28;20233;-73
2022/01/20 10:35:39;;;;;;;8.33;2.07;;;;;;;;;;4980143;28;20221;-73
2022/01/20 10:38:27;;;;;;;11.53;2.10;;;;;;;;;;4994282;28;20224;-73
2022/01/20 10:41:04;;;;;;;7.03;1.80;;;;;;;;;;4981818;28;20687;-73
2022/01/20 10:43:36;;;;;;;7.97;1.87;;;;;;;;;;4982807;28;20624;-73
2022/01/20 10:46:29;;;;;;;3.63;1.80;;;;;;;;;;4975887;28;20217;-75
2022/01/20 10:48:59;;;;;;;9.13;2.00;;;;;;;;;;4991746;28;20289;-74
2022/01/20 10:51:28;;;;;;;9.97;2.60;;;;;;;;;;4944664;28;20220;-76
2022/01/20 10:54:02;;;;;;;8.47;2.07;;;;;;;;;;4992733;28;20300;-75
2022/01/20 10:56:37;;;;;;;7.03;2.23;;;;;;;;;;5001547;28;20225;-74
2022/01/20 10:59:09;;;;;;;9.13;2.20;;;;;;;;;;4974474;28;20229;-74
2022/01/20 11:01:37;;;;;;;9.73;2.47;;;;;;;;;;4980397;28;20212;-73
2022/01/20 11:04:07;;;;;;;10.23;2.00;;;;;;;;;;4980266;28;20229;-73
2022/01/20 11:06:36;;;;;;;5.73;2.17;;;;;;;;;;4990040;28;20610;-73
2022/01/20 11:09:22;;;;;;;7.33;1.63;;;;;;;;;;4984403;28;20316;-73
2022/01/20 11:12:14;;;;;;;5.67;1.67;;;;;;;;;;4976691;28;20237;-74
2022/01/20 11:14:55;;;;;;;9.63;2.07;;;;;;;;;;4979122;28;20304;-74
2022/01/20 11:17:22;;;;;;;9.57;2.20;;;;;;;;;;4990045;28;20233;-73
2022/01/20 11:19:50;;;;;;;9.43;2.20;;;;;;;;;;4959346;28;20225;-74
2022/01/20 11:22:19;;;;;;;6.20;1.50;;;;;;;;;;4942421;28;20225;-73
2022/01/20 11:24:58;;;;;;;11.47;2.13;;;;;;;;;;4962093;28;20291;-73
2022/01/20 11:27:37;;;;;;;8.90;2.00;;;;;;;;;;4976111;28;20220;-73
2022/01/20 11:30:29;;;;;;;7.27;1.60;;;;;;;;;;4991040;28;20220;-74
2022/01/20 11:33:17;;;;;;;8.27;1.90;;;;;;;;;;4977281;28;20213;-73
2022/01/20 11:35:56;;;;;;;9.80;2.33;;;;;;;;;;4982501;28;20217;-74
2022/01/20 11:38:41;;;;;;;7.73;1.67;;;;;;;;;;4979257;28;20231;-73
2022/01/20 11:41:07;;;;;;;7.57;2.23;;;;;;;;;;4997644;28;20227;-72
2022/01/20 11:43:57;;;;;;;8.93;2.03;;;;;;;;;;4982237;28;20221;-76
2022/01/20 11:46:28;;;;;;;8.53;2.27;;;;;;;;;;4975933;28;20247;-74
2022/01/20 11:49:01;;;;;;;9.20;2.20;;;;;;;;;;4978625;28;20232;-72
2022/01/20 11:51:43;;;;;;;9.43;2.40;;;;;;;;;;4969232;28;20229;-72
2022/01/20 11:54:11;;;;;;;8.23;2.30;;;;;;;;;;5003608;28;20306;-72
2022/01/20 11:56:41;;;;;;;7.90;2.37;;;;;;;;;;4991894;28;20221;-72
2022/01/20 11:59:13;;;;;;;2.93;1.40;;;;;;;;;;4963720;28;20221;-72
2022/01/20 12:01:48;;;;;;;8.93;1.97;;;;;;;;;;4983964;28;20231;-72
2022/01/20 12:04:14;;;;;;;6.73;1.83;;;;;;;;;;4986593;28;20319;-73
2022/01/20 12:06:47;;;;;;;5.70;1.57;;;;;;;;;;4998768;28;20233;-72
2022/01/20 12:09:14;;;;;;;4.47;1.50;;;;;;;;;;4978615;28;20237;-73
2022/01/20 12:11:46;;;;;;;6.10;1.63;;;;;;;;;;4994237;28;20284;-74
2022/01/20 12:14:15;;;;;;;8.63;2.03;;;;;;;;;;4967332;28;20601;-72
2022/01/20 12:16:40;;;;;;;8.53;1.40;;;;;;;;;;4997950;28;20287;-72
2022/01/20 12:19:11;;;;;;;6.57;1.97;;;;;;;;;;4996655;28;20224;-73
2022/01/20 12:21:37;;;;;;;6.73;1.50;;;;;;;;;;4994856;28;20229;-72
2022/01/20 12:24:06;;;;;;;9.30;1.80;;;;;;;;;;4998320;28;20310;-73
2022/01/20 12:26:35;;;;;;;8.73;1.77;;;;;;;;;;4985861;28;20226;-74
2022/01/20 12:29:08;;;;;;;7.60;1.80;;;;;;;;;;4989631;28;20225;-73
2022/01/20 12:31:53;;;;;;;8.80;1.80;;;;;;;;;;4981177;28;20253;-72
2022/01/20 12:34:24;;;;;;;4.53;1.53;;;;;;;;;;4986983;28;20224;-72
2022/01/20 12:36:54;;;;;;;6.10;1.63;;;;;;;;;;4996059;28;20237;-72
2022/01/20 12:39:25;;;;;;;5.60;1.70;;;;;;;;;;4976867;28;20271;-72
2022/01/20 12:42:07;;;;;;;6.67;1.53;;;;;;;;;;4985982;28;20214;-72
2022/01/20 12:44:46;;;;;;;3.77;1.33;;;;;;;;;;4974105;28;20233;-72
2022/01/20 12:47:12;;;;;;;6.03;1.53;;;;;;;;;;4990372;28;20707;-71
2022/01/20 12:49:38;;;;;;;4.67;1.60;;;;;;;;;;4979761;28;20229;-72
2022/01/20 12:52:04;;;;;;;6.00;1.40;;;;;;;;;;4986626;28;20229;-72
2022/01/20 12:54:36;;;;;;;8.10;1.80;;;;;;;;;;4982984;28;20228;-73
2022/01/20 12:57:08;;;;;;;5.67;1.47;;;;;;;;;;4982002;28;20373;-73
2022/01/20 12:59:39;;;;;;;6.10;1.27;;;;;;;;;;4997242;28;20304;-72
2022/01/20 13:02:24;;;;;;;6.53;1.40;;;;;;;;;;4977071;28;20233;-71
2022/01/20 13:05:02;;;;;;;3.17;1.03;;;;;;;;;;4993679;28;20252;-75
2022/01/20 13:07:30;;;;;;;2.80;0.97;;;;;;;;;;4993293;28;20649;-72
2022/01/20 13:10:07;;;;;;;3.87;1.50;;;;;;;;;;4961050;28;20272;-72
2022/01/20 13:12:36;;;;;;;5.90;1.30;;;;;;;;;;4993145;28;20645;-71
2022/01/20 13:15:03;;;;;;;5.50;1.30;;;;;;;;;;4994901;28;20229;-73
2022/01/20 13:17:30;;;;;;;4.33;1.23;;;;;;;;;;4977311;28;20656;-74
2022/01/20 13:19:59;;;;;;;9.27;1.40;;;;;;;;;;4977778;28;20218;-72
2022/01/20 13:22:31;;;;;;;5.00;1.50;;;;;;;;;;4961487;28;20231;-73
2022/01/20 13:25:13;;;;;;;5.83;1.97;;;;;;;;;;4999818;28;20644;-75
2022/01/20 13:27:54;;;;;;;7.37;2.13;;;;;;;;;;4975695;28;20224;-73
2022/01/20 13:30:39;;;;;;;3.20;1.50;;;;;;;;;;5000722;28;22528;-74
2022/01/20 13:33:05;;;;;;;7.27;1.43;;;;;;;;;;4992410;28;20263;-74
2022/01/20 13:35:43;;;;;;;6.50;1.53;;;;;;;;;;4957675;28;20229;-73
2022/01/20 13:38:09;;;;;;;5.63;1.63;;;;;;;;;;4957384;28;20588;-73
2022/01/20 13:40:35;;;;;;;6.60;1.60;;;;;;;;;;4959255;28;20221;-73
2022/01/20 13:45:59;;;;;;;6.10;1.40;;;;;;;;;;4987182;28;20730;-73
2022/01/20 13:48:32;;;;;;;2.77;0.70;;;;;;;;;;4988730;28;20214;-74
2022/01/20 13:50:58;;;;;;;3.07;0.80;;;;;;;;;;4974599;28;20313;-72
2022/01/20 13:53:29;;;;;;;6.27;1.53;;;;;;;;;;4973741;28;20218;-72
2022/01/20 13:55:56;;;;;;;6.10;1.00;;;;;;;;;;4986857;28;20221;-73
2022/01/20 13:58:28;;;;;;;5.23;0.87;;;;;;;;;;4994861;28;20235;-73
2022/01/20 14:01:00;;;;;;;7.50;1.13;;;;;;;;;;4992353;28;20230;-73
2022/01/20 14:03:26;;;;;;;2.73;1.10;;;;;;;;;;4958854;28;20696;-73
2022/01/20 14:05:58;;;;;;;5.83;1.40;;;;;;;;;;4978309;28;20310;-72
2022/01/20 14:08:24;;;;;;;3.03;1.10;;;;;;;;;;4976359;28;20221;-73
2022/01/20 14:10:49;;;;;;;5.27;1.10;;;;;;;;;;4960191;28;20236;-73
2022/01/20 14:13:15;;;;;;;5.33;1.37;;;;;;;;;;4943740;28;20229;-72
2022/01/20 14:15:40;;;;;;;3.63;1.53;;;;;;;;;;4959904;28;20225;-73
2022/01/20 14:18:07;;;;;;;5.60;1.43;;;;;;;;;;4975797;28;20296;-74
2022/01/20 14:20:37;;;;;;;7.07;1.50;;;;;;;;;;4991930;28;20692;-73
2022/01/20 14:23:07;;;;;;;7.37;1.47;;;;;;;;;;4990946;28;20248;-74
2022/01/20 14:25:36;;;;;;;8.17;1.90;;;;;;;;;;4992786;28;20312;-73
2022/01/20 14:28:02;;;;;;;5.77;2.50;;;;;;;;;;4976143;28;20222;-72
2022/01/20 14:30:28;;;;;;;6.70;2.87;;;;;;;;;;4975246;28;20604;-73
2022/01/20 14:32:54;;;;;;;5.33;1.47;;;;;;;;;;4975968;28;20222;-72
2022/01/20 14:35:25;;;;;;;4.50;1.63;;;;;;;;;;4975306;28;20245;-73
2022/01/20 14:37:51;;;;;;;3.30;1.20;;;;;;;;;;4991793;28;20224;-73
2022/01/20 14:40:22;;;;;;;4.77;1.37;;;;;;;;;;4992535;28;20225;-73
2022/01/20 14:42:49;;;;;;;5.80;1.63;;;;;;;;;;4990433;28;20233;-73
2022/01/20 14:45:15;;;;;;;4.67;1.57;;;;;;;;;;4958737;28;20221;-73
2022/01/20 14:47:43;;;;;;;6.17;1.50;;;;;;;;;;4975871;28;20240;-73
2022/01/20 14:50:12;;;;;;;8.03;1.60;;;;;;;;;;4958237;28;20218;-73
2022/01/20 14:52:38;;;;;;;6.57;1.23;;;;;;;;;;4997646;28;20217;-74
2022/01/20 14:55:04;;;;;;;6.77;1.43;;;;;;;;;;4998530;28;20418;-72
2022/01/20 14:57:30;;;;;;;8.23;1.73;;;;;;;;;;4986618;28;20232;-74
2022/01/20 15:00:00;;;;;;;4.70;1.60;;;;;;;;;;4975656;28;20217;-73
2022/01/20 15:02:30;;;;;;;4.20;1.30;;;;;;;;;;4975309;28;20229;-73
2022/01/20 15:04:56;;;;;;;6.47;1.80;;;;;;;;;;4995597;28;20847;-73
2022/01/20 15:07:22;;;;;;;10.40;2.43;;;;;;;;;;5009351;28;20306;-72
2022/01/20 15:09:51;;;;;;;11.00;2.53;;;;;;;;;;4994346;28;20216;-71
2022/01/20 15:12:17;;;;;;;7.07;1.80;;;;;;;;;;4991775;28;20232;-73
2022/01/20 15:14:45;;;;;;;7.40;2.00;;;;;;;;;;4992017;28;20229;-74
2022/01/20 15:17:10;;;;;;;10.30;2.23;;;;;;;;;;4991953;28;20225;-71
2022/01/20 15:19:36;;;;;;;9.10;2.20;;;;;;;;;;4990914;28;20740;-73
2022/01/20 15:22:02;;;;;;;5.50;1.90;;;;;;;;;;4970014;28;20708;-74
2022/01/20 15:24:35;;;;;;;7.23;2.17;;;;;;;;;;4955370;28;20230;-73
2022/01/20 15:27:01;;;;;;;10.43;2.20;;;;;;;;;;4971559;28;20312;-73
2022/01/20 15:29:27;;;;;;;9.13;2.37;;;;;;;;;;4971128;28;20302;-74
2022/01/20 15:31:55;;;;;;;10.33;2.27;;;;;;;;;;4981712;28;20225;-71
2022/01/20 15:34:20;;;;;;;7.73;2.00;;;;;;;;;;4956241;28;20218;-73
2022/01/20 15:36:51;;;;;;;6.77;1.80;;;;;;;;;;4983820;28;20225;-72
2022/01/20 15:39:18;;;;;;;6.83;1.63;;;;;;;;;;4973835;28;20655;-73
2022/01/20 15:41:46;;;;;;;5.00;1.40;;;;;;;;;;4990377;28;20244;-73
2022/01/20 15:44:14;;;;;;;5.40;1.63;;;;;;;;;;4990422;28;20316;-73
2022/01/20 15:46:40;;;;;;;7.07;1.77;;;;;;;;;;4958471;28;20633;-72
2022/01/20 15:49:08;;;;;;;6.63;1.63;;;;;;;;;;4990108;28;20229;-72
2022/01/20 15:51:34;;;;;;;5.27;1.47;;;;;;;;;;4958172;28;20217;-72
2022/01/20 15:54:03;;;;;;;6.77;1.80;;;;;;;;;;4974744;28;20699;-73
2022/01/20 15:56:29;;;;;;;5.80;1.67;;;;;;;;;;4990129;28;20342;-72
2022/01/20 15:58:54;;;;;;;5.13;1.50;;;;;;;;;;4958950;28;20707;-72
2022/01/20 16:01:23;;;;;;;6.00;1.40;;;;;;;;;;4974195;28;20690;-73
2022/01/20 16:03:51;;;;;;;5.03;1.50;;;;;;;;;;4990793;28;20616;-72
2022/01/20 16:06:19;;;;;;;7.27;1.30;;;;;;;;;;4958886;28;20214;-71
2022/01/20 16:08:45;;;;;;;7.67;1.73;;;;;;;;;;4988864;28;20304;-72
2022/01/20 16:11:10;;;;;;;7.83;3.07;;;;;;;;;;4965953;28;20648;-72
2022/01/20 16:13:38;;;;;;;8.20;2.87;;;;;;;;;;4972454;28;20225;-72
2022/01/20 16:16:06;;;;;;;7.40;2.73;;;;;;;;;;5005110;28;20244;-72
2022/01/20 16:18:33;;;;;;;7.27;2.40;;;;;;;;;;4991108;28;20245;-72
2022/01/20 16:21:02;;;;;;;5.83;2.37;;;;;;;;;;4999566;28;20232;-72